Pagrindinis puslapis
METAR-TAF:

METAR-TAF

Oro uostai :

Fudžou, Kinija

platuma: 26-05N, ilguma: 119-17E, Aukštis: 85 m

Dabartinis oras

Ataskaita buvo paskelbta 18 minutes, ne 13:00 UTC
Vėjas 16 kt iš Šiaurės/Šiaurės Rytų
Temperatūra 19°C
Drėgmė 64%
Slėgis 1020 hPa
Matomumas 10 km arba daugiau
Su prošvaistėmis ne aukštis 4600 ft

METAR: ZSFZ 211300Z 03008MPS 9999 BKN046 19/12 Q1020 NOSIG

Laikas: 21:18 (13:18 UTC)

Prognozė

Ataskaita buvo paskelbta 4 valandos ir 13 minutes, ne 09:05 UTC
Prognozė galioja nuo 21 metu 12 UTC su 22 metu 12 UTC
Vėjas 14 kt iš Šiaurės/Šiaurės Rytų
Matomumas: 6000 m
Su prošvaistėmis ne aukštis 3000 ft

TAF: ZSFZ 210905Z 2112/2212 02007MPS 6000 BKN030 TX22/2206Z TN17/2121Z

Orai ataskaitas ir orų prognozės (METAR, TAF).

turimą stotys yra geltonos ir raudonos taškus žemėlapyje.

Perkelti pele per norėdami pamatyti stoties vardą.

Tada spustelėkite, norėdami matyti oro stebėjimo ir prognozės.

Norėdami pakeisti žemėlapį: spustelėkite ant žalios mygtukų su juodo kryžiaus žemyn,; žalią mygtuką su brūkšneliu, jei norite nutolinti; arba žalių rodyklių gretimoms žemėlapius.


METAR-TAF: